sensor_id;sensor_type;location;lat;lon;timestamp;P1;durP1;ratioP1;P2;durP2;ratioP2
73084;SDS011;62974;49.460;10.892;2023-05-20T00:00:56;4.15;;;2.35;;
73084;SDS011;62974;49.460;10.892;2023-05-20T00:03:24;4.15;;;2.35;;
73084;SDS011;62974;49.460;10.892;2023-05-20T00:05:52;5.50;;;2.08;;
73084;SDS011;62974;49.460;10.892;2023-05-20T00:08:19;3.70;;;2.35;;
73084;SDS011;62974;49.460;10.892;2023-05-20T00:10:48;3.42;;;2.00;;
73084;SDS011;62974;49.460;10.892;2023-05-20T00:13:16;3.83;;;2.30;;
73084;SDS011;62974;49.460;10.892;2023-05-20T00:15:44;4.10;;;2.28;;
73084;SDS011;62974;49.460;10.892;2023-05-20T00:18:11;3.75;;;2.20;;
73084;SDS011;62974;49.460;10.892;2023-05-20T00:20:39;5.03;;;1.92;;
73084;SDS011;62974;49.460;10.892;2023-05-20T00:23:06;3.72;;;2.10;;
73084;SDS011;62974;49.460;10.892;2023-05-20T00:25:34;4.88;;;2.60;;
73084;SDS011;62974;49.460;10.892;2023-05-20T00:28:04;4.97;;;1.85;;
73084;SDS011;62974;49.460;10.892;2023-05-20T00:30:32;4.90;;;2.55;;
73084;SDS011;62974;49.460;10.892;2023-05-20T00:32:59;6.22;;;2.60;;
73084;SDS011;62974;49.460;10.892;2023-05-20T00:35:27;3.78;;;2.30;;
73084;SDS011;62974;49.460;10.892;2023-05-20T00:37:55;4.28;;;2.15;;
73084;SDS011;62974;49.460;10.892;2023-05-20T00:40:22;2.50;;;1.92;;
73084;SDS011;62974;49.460;10.892;2023-05-20T00:42:51;4.00;;;2.40;;
73084;SDS011;62974;49.460;10.892;2023-05-20T00:45:19;3.97;;;2.10;;
73084;SDS011;62974;49.460;10.892;2023-05-20T00:47:47;3.10;;;2.13;;
73084;SDS011;62974;49.460;10.892;2023-05-20T00:50:15;5.38;;;2.95;;
73084;SDS011;62974;49.460;10.892;2023-05-20T00:52:43;4.50;;;2.45;;
73084;SDS011;62974;49.460;10.892;2023-05-20T00:55:13;5.72;;;3.38;;
73084;SDS011;62974;49.460;10.892;2023-05-20T00:57:41;4.72;;;2.90;;
73084;SDS011;62974;49.460;10.892;2023-05-20T01:00:09;3.90;;;2.50;;
73084;SDS011;62974;49.460;10.892;2023-05-20T01:02:40;3.75;;;2.47;;
73084;SDS011;62974;49.460;10.892;2023-05-20T01:05:08;3.47;;;2.20;;
73084;SDS011;62974;49.460;10.892;2023-05-20T01:07:36;4.65;;;2.60;;
73084;SDS011;62974;49.460;10.892;2023-05-20T01:10:04;4.85;;;2.67;;
73084;SDS011;62974;49.460;10.892;2023-05-20T01:12:35;3.90;;;2.50;;
73084;SDS011;62974;49.460;10.892;2023-05-20T01:15:06;3.58;;;2.45;;
73084;SDS011;62974;49.460;10.892;2023-05-20T01:17:37;5.88;;;3.03;;
73084;SDS011;62974;49.460;10.892;2023-05-20T01:20:10;4.13;;;2.67;;
73084;SDS011;62974;49.460;10.892;2023-05-20T01:22:46;3.63;;;2.40;;
73084;SDS011;62974;49.460;10.892;2023-05-20T01:25:14;3.22;;;2.20;;
73084;SDS011;62974;49.460;10.892;2023-05-20T01:27:42;4.20;;;2.83;;
73084;SDS011;62974;49.460;10.892;2023-05-20T01:30:10;4.80;;;2.63;;
73084;SDS011;62974;49.460;10.892;2023-05-20T01:32:40;3.70;;;2.30;;
73084;SDS011;62974;49.460;10.892;2023-05-20T01:35:12;4.97;;;3.20;;
73084;SDS011;62974;49.460;10.892;2023-05-20T01:37:42;4.35;;;2.63;;
73084;SDS011;62974;49.460;10.892;2023-05-20T01:40:13;5.78;;;2.97;;
73084;SDS011;62974;49.460;10.892;2023-05-20T01:42:42;4.22;;;2.65;;
73084;SDS011;62974;49.460;10.892;2023-05-20T01:45:11;3.72;;;2.70;;
73084;SDS011;62974;49.460;10.892;2023-05-20T01:47:38;3.80;;;2.45;;
73084;SDS011;62974;49.460;10.892;2023-05-20T01:50:06;4.00;;;2.55;;
73084;SDS011;62974;49.460;10.892;2023-05-20T01:52:34;4.70;;;2.70;;
73084;SDS011;62974;49.460;10.892;2023-05-20T01:55:02;5.50;;;3.72;;
73084;SDS011;62974;49.460;10.892;2023-05-20T01:57:31;3.58;;;1.98;;
73084;SDS011;62974;49.460;10.892;2023-05-20T01:59:59;4.53;;;2.65;;
73084;SDS011;62974;49.460;10.892;2023-05-20T02:02:26;5.25;;;3.22;;
73084;SDS011;62974;49.460;10.892;2023-05-20T02:04:54;5.05;;;2.55;;
73084;SDS011;62974;49.460;10.892;2023-05-20T02:07:22;6.85;;;2.60;;
73084;SDS011;62974;49.460;10.892;2023-05-20T02:09:50;5.25;;;3.08;;
73084;SDS011;62974;49.460;10.892;2023-05-20T02:12:17;4.28;;;2.63;;
73084;SDS011;62974;49.460;10.892;2023-05-20T02:14:46;4.93;;;2.85;;
73084;SDS011;62974;49.460;10.892;2023-05-20T02:17:15;4.22;;;2.70;;
73084;SDS011;62974;49.460;10.892;2023-05-20T02:19:43;4.70;;;2.78;;
73084;SDS011;62974;49.460;10.892;2023-05-20T02:22:11;3.92;;;2.42;;
73084;SDS011;62974;49.460;10.892;2023-05-20T02:24:39;5.45;;;2.90;;
73084;SDS011;62974;49.460;10.892;2023-05-20T02:27:08;5.57;;;3.03;;
73084;SDS011;62974;49.460;10.892;2023-05-20T02:29:36;5.70;;;2.70;;
73084;SDS011;62974;49.460;10.892;2023-05-20T02:32:05;4.95;;;2.97;;
73084;SDS011;62974;49.460;10.892;2023-05-20T02:34:34;4.00;;;2.42;;
73084;SDS011;62974;49.460;10.892;2023-05-20T02:37:01;5.35;;;2.28;;
73084;SDS011;62974;49.460;10.892;2023-05-20T02:39:29;10.05;;;3.10;;
73084;SDS011;62974;49.460;10.892;2023-05-20T02:41:56;5.45;;;2.90;;
73084;SDS011;62974;49.460;10.892;2023-05-20T02:44:24;4.90;;;2.88;;
73084;SDS011;62974;49.460;10.892;2023-05-20T02:46:52;4.78;;;2.60;;
73084;SDS011;62974;49.460;10.892;2023-05-20T02:49:21;4.05;;;2.85;;
73084;SDS011;62974;49.460;10.892;2023-05-20T02:51:49;5.00;;;2.90;;
73084;SDS011;62974;49.460;10.892;2023-05-20T02:54:16;5.32;;;3.08;;
73084;SDS011;62974;49.460;10.892;2023-05-20T02:56:44;4.47;;;2.85;;
73084;SDS011;62974;49.460;10.892;2023-05-20T02:59:11;4.82;;;3.03;;
73084;SDS011;62974;49.460;10.892;2023-05-20T03:01:39;5.25;;;2.95;;
73084;SDS011;62974;49.460;10.892;2023-05-20T03:04:07;4.25;;;2.72;;
73084;SDS011;62974;49.460;10.892;2023-05-20T03:06:36;5.53;;;3.40;;
73084;SDS011;62974;49.460;10.892;2023-05-20T03:09:04;4.32;;;2.47;;
73084;SDS011;62974;49.460;10.892;2023-05-20T03:11:31;4.88;;;2.95;;
73084;SDS011;62974;49.460;10.892;2023-05-20T03:13:59;6.47;;;3.13;;
73084;SDS011;62974;49.460;10.892;2023-05-20T03:16:26;6.97;;;3.10;;
73084;SDS011;62974;49.460;10.892;2023-05-20T03:18:54;4.22;;;2.63;;
73084;SDS011;62974;49.460;10.892;2023-05-20T03:21:22;4.35;;;2.75;;
73084;SDS011;62974;49.460;10.892;2023-05-20T03:23:51;4.32;;;2.72;;
73084;SDS011;62974;49.460;10.892;2023-05-20T03:26:19;5.50;;;3.60;;
73084;SDS011;62974;49.460;10.892;2023-05-20T03:28:48;5.00;;;3.08;;
73084;SDS011;62974;49.460;10.892;2023-05-20T03:31:15;6.55;;;3.85;;
73084;SDS011;62974;49.460;10.892;2023-05-20T03:33:44;6.60;;;3.28;;
73084;SDS011;62974;49.460;10.892;2023-05-20T03:36:12;6.97;;;3.30;;
73084;SDS011;62974;49.460;10.892;2023-05-20T03:38:39;5.68;;;3.60;;
73084;SDS011;62974;49.460;10.892;2023-05-20T03:41:08;4.72;;;2.70;;
73084;SDS011;62974;49.460;10.892;2023-05-20T03:43:36;5.72;;;3.70;;
73084;SDS011;62974;49.460;10.892;2023-05-20T03:46:04;4.82;;;2.83;;
73084;SDS011;62974;49.460;10.892;2023-05-20T03:48:31;5.90;;;3.42;;
73084;SDS011;62974;49.460;10.892;2023-05-20T03:50:59;5.15;;;3.00;;
73084;SDS011;62974;49.460;10.892;2023-05-20T03:53:27;4.55;;;3.03;;
73084;SDS011;62974;49.460;10.892;2023-05-20T03:55:54;5.60;;;3.78;;
73084;SDS011;62974;49.460;10.892;2023-05-20T03:58:23;5.45;;;2.78;;
73084;SDS011;62974;49.460;10.892;2023-05-20T04:00:51;6.03;;;3.50;;
73084;SDS011;62974;49.460;10.892;2023-05-20T04:03:18;5.00;;;3.08;;
73084;SDS011;62974;49.460;10.892;2023-05-20T04:05:48;5.25;;;3.40;;
73084;SDS011;62974;49.460;10.892;2023-05-20T04:08:15;5.95;;;3.25;;
73084;SDS011;62974;49.460;10.892;2023-05-20T04:10:43;5.93;;;2.88;;
73084;SDS011;62974;49.460;10.892;2023-05-20T04:13:12;4.47;;;2.78;;
73084;SDS011;62974;49.460;10.892;2023-05-20T04:15:41;5.65;;;3.33;;
73084;SDS011;62974;49.460;10.892;2023-05-20T04:18:09;6.25;;;3.55;;
73084;SDS011;62974;49.460;10.892;2023-05-20T04:20:39;7.05;;;3.60;;
73084;SDS011;62974;49.460;10.892;2023-05-20T04:23:07;5.80;;;3.90;;
73084;SDS011;62974;49.460;10.892;2023-05-20T04:25:34;5.70;;;3.72;;
73084;SDS011;62974;49.460;10.892;2023-05-20T04:28:02;7.10;;;3.42;;
73084;SDS011;62974;49.460;10.892;2023-05-20T04:30:30;6.90;;;3.83;;
73084;SDS011;62974;49.460;10.892;2023-05-20T04:32:59;5.97;;;3.60;;
73084;SDS011;62974;49.460;10.892;2023-05-20T04:35:28;7.57;;;3.90;;
73084;SDS011;62974;49.460;10.892;2023-05-20T04:37:56;6.97;;;3.78;;
73084;SDS011;62974;49.460;10.892;2023-05-20T04:40:24;6.13;;;3.67;;
73084;SDS011;62974;49.460;10.892;2023-05-20T04:42:52;4.90;;;3.13;;
73084;SDS011;62974;49.460;10.892;2023-05-20T04:47:49;5.53;;;3.17;;
73084;SDS011;62974;49.460;10.892;2023-05-20T04:50:19;5.88;;;3.40;;
73084;SDS011;62974;49.460;10.892;2023-05-20T04:52:47;5.95;;;3.83;;
73084;SDS011;62974;49.460;10.892;2023-05-20T04:55:15;7.05;;;4.10;;
73084;SDS011;62974;49.460;10.892;2023-05-20T04:57:43;7.05;;;4.40;;
73084;SDS011;62974;49.460;10.892;2023-05-20T05:00:11;6.10;;;3.40;;
73084;SDS011;62974;49.460;10.892;2023-05-20T05:02:39;6.20;;;4.28;;
73084;SDS011;62974;49.460;10.892;2023-05-20T05:05:07;6.00;;;4.03;;
73084;SDS011;62974;49.460;10.892;2023-05-20T05:07:36;7.68;;;3.70;;
73084;SDS011;62974;49.460;10.892;2023-05-20T05:10:04;5.43;;;3.72;;
73084;SDS011;62974;49.460;10.892;2023-05-20T05:12:32;6.53;;;4.47;;
73084;SDS011;62974;49.460;10.892;2023-05-20T05:15:00;6.53;;;3.70;;
73084;SDS011;62974;49.460;10.892;2023-05-20T05:17:28;6.22;;;4.07;;
73084;SDS011;62974;49.460;10.892;2023-05-20T05:19:55;6.32;;;3.88;;
73084;SDS011;62974;49.460;10.892;2023-05-20T05:22:23;9.23;;;4.38;;
73084;SDS011;62974;49.460;10.892;2023-05-20T05:24:52;6.55;;;3.35;;
73084;SDS011;62974;49.460;10.892;2023-05-20T05:27:20;7.25;;;4.18;;
73084;SDS011;62974;49.460;10.892;2023-05-20T05:29:48;7.13;;;3.75;;
73084;SDS011;62974;49.460;10.892;2023-05-20T05:32:16;7.43;;;4.25;;
73084;SDS011;62974;49.460;10.892;2023-05-20T05:34:44;5.80;;;3.35;;
73084;SDS011;62974;49.460;10.892;2023-05-20T05:37:11;8.20;;;4.68;;
73084;SDS011;62974;49.460;10.892;2023-05-20T05:39:39;6.72;;;3.90;;
73084;SDS011;62974;49.460;10.892;2023-05-20T05:42:08;8.15;;;4.65;;
73084;SDS011;62974;49.460;10.892;2023-05-20T05:44:35;7.15;;;3.97;;
73084;SDS011;62974;49.460;10.892;2023-05-20T05:47:03;7.57;;;4.40;;
73084;SDS011;62974;49.460;10.892;2023-05-20T05:49:32;8.63;;;4.40;;
73084;SDS011;62974;49.460;10.892;2023-05-20T05:52:00;6.00;;;3.40;;
73084;SDS011;62974;49.460;10.892;2023-05-20T05:54:27;8.77;;;4.57;;
73084;SDS011;62974;49.460;10.892;2023-05-20T05:56:55;8.18;;;4.25;;
73084;SDS011;62974;49.460;10.892;2023-05-20T05:59:24;5.82;;;3.72;;
73084;SDS011;62974;49.460;10.892;2023-05-20T06:01:51;8.77;;;4.07;;
73084;SDS011;62974;49.460;10.892;2023-05-20T06:04:19;7.47;;;3.72;;
73084;SDS011;62974;49.460;10.892;2023-05-20T06:06:47;5.50;;;3.85;;
73084;SDS011;62974;49.460;10.892;2023-05-20T06:09:15;8.65;;;4.53;;
73084;SDS011;62974;49.460;10.892;2023-05-20T06:11:42;6.95;;;4.55;;
73084;SDS011;62974;49.460;10.892;2023-05-20T06:14:10;6.68;;;4.10;;
73084;SDS011;62974;49.460;10.892;2023-05-20T06:16:39;6.95;;;3.92;;
73084;SDS011;62974;49.460;10.892;2023-05-20T06:19:06;6.97;;;4.15;;
73084;SDS011;62974;49.460;10.892;2023-05-20T06:21:34;7.75;;;4.60;;
73084;SDS011;62974;49.460;10.892;2023-05-20T06:24:02;7.85;;;4.43;;
73084;SDS011;62974;49.460;10.892;2023-05-20T06:26:30;7.80;;;4.28;;
73084;SDS011;62974;49.460;10.892;2023-05-20T06:28:57;7.28;;;4.53;;
73084;SDS011;62974;49.460;10.892;2023-05-20T06:31:25;6.93;;;4.25;;
73084;SDS011;62974;49.460;10.892;2023-05-20T06:33:56;9.20;;;4.55;;
73084;SDS011;62974;49.460;10.892;2023-05-20T06:36:26;8.88;;;3.72;;
73084;SDS011;62974;49.460;10.892;2023-05-20T06:38:54;7.22;;;4.45;;
73084;SDS011;62974;49.460;10.892;2023-05-20T06:41:21;7.15;;;4.60;;
73084;SDS011;62974;49.460;10.892;2023-05-20T06:43:49;7.10;;;4.82;;
73084;SDS011;62974;49.460;10.892;2023-05-20T06:46:18;7.68;;;4.65;;
73084;SDS011;62974;49.460;10.892;2023-05-20T06:48:46;9.98;;;4.88;;
73084;SDS011;62974;49.460;10.892;2023-05-20T06:51:15;5.57;;;3.63;;
73084;SDS011;62974;49.460;10.892;2023-05-20T06:53:42;12.27;;;4.55;;
73084;SDS011;62974;49.460;10.892;2023-05-20T06:56:10;6.07;;;4.53;;
73084;SDS011;62974;49.460;10.892;2023-05-20T06:58:38;9.48;;;4.45;;
73084;SDS011;62974;49.460;10.892;2023-05-20T07:01:05;8.20;;;5.03;;
73084;SDS011;62974;49.460;10.892;2023-05-20T07:03:33;6.93;;;4.60;;
73084;SDS011;62974;49.460;10.892;2023-05-20T07:06:01;7.00;;;3.45;;
73084;SDS011;62974;49.460;10.892;2023-05-20T07:08:30;8.07;;;4.82;;
73084;SDS011;62974;49.460;10.892;2023-05-20T07:10:57;7.78;;;4.93;;
73084;SDS011;62974;49.460;10.892;2023-05-20T07:13:25;9.43;;;4.72;;
73084;SDS011;62974;49.460;10.892;2023-05-20T07:15:52;8.00;;;4.47;;
73084;SDS011;62974;49.460;10.892;2023-05-20T07:18:20;7.45;;;4.40;;
73084;SDS011;62974;49.460;10.892;2023-05-20T07:20:48;8.18;;;4.88;;
73084;SDS011;62974;49.460;10.892;2023-05-20T07:23:15;8.23;;;5.10;;
73084;SDS011;62974;49.460;10.892;2023-05-20T07:25:44;7.20;;;4.55;;
73084;SDS011;62974;49.460;10.892;2023-05-20T07:28:14;6.50;;;4.10;;
73084;SDS011;62974;49.460;10.892;2023-05-20T07:30:42;6.95;;;3.63;;
73084;SDS011;62974;49.460;10.892;2023-05-20T07:33:11;7.07;;;4.65;;
73084;SDS011;62974;49.460;10.892;2023-05-20T07:35:39;7.10;;;4.80;;
73084;SDS011;62974;49.460;10.892;2023-05-20T07:38:06;7.78;;;4.70;;
73084;SDS011;62974;49.460;10.892;2023-05-20T07:40:34;8.98;;;4.95;;
73084;SDS011;62974;49.460;10.892;2023-05-20T07:43:05;7.25;;;3.85;;
73084;SDS011;62974;49.460;10.892;2023-05-20T07:45:33;6.78;;;4.68;;
73084;SDS011;62974;49.460;10.892;2023-05-20T07:48:02;7.30;;;4.78;;
73084;SDS011;62974;49.460;10.892;2023-05-20T07:50:30;6.03;;;4.03;;
73084;SDS011;62974;49.460;10.892;2023-05-20T07:52:57;8.00;;;5.05;;
73084;SDS011;62974;49.460;10.892;2023-05-20T07:55:25;5.13;;;3.40;;
73084;SDS011;62974;49.460;10.892;2023-05-20T07:57:53;8.10;;;4.40;;
73084;SDS011;62974;49.460;10.892;2023-05-20T08:00:22;8.23;;;5.30;;
73084;SDS011;62974;49.460;10.892;2023-05-20T08:02:49;9.45;;;4.28;;
73084;SDS011;62974;49.460;10.892;2023-05-20T08:05:17;16.73;;;6.15;;
73084;SDS011;62974;49.460;10.892;2023-05-20T08:07:45;6.38;;;3.47;;
73084;SDS011;62974;49.460;10.892;2023-05-20T08:10:15;7.68;;;4.53;;
73084;SDS011;62974;49.460;10.892;2023-05-20T08:12:42;8.85;;;5.10;;
73084;SDS011;62974;49.460;10.892;2023-05-20T08:15:10;6.32;;;4.25;;
73084;SDS011;62974;49.460;10.892;2023-05-20T08:17:39;8.70;;;4.90;;
73084;SDS011;62974;49.460;10.892;2023-05-20T08:20:07;5.63;;;3.88;;
73084;SDS011;62974;49.460;10.892;2023-05-20T08:22:35;8.18;;;4.82;;
73084;SDS011;62974;49.460;10.892;2023-05-20T08:25:06;7.78;;;4.32;;
73084;SDS011;62974;49.460;10.892;2023-05-20T08:27:36;5.68;;;3.17;;
73084;SDS011;62974;49.460;10.892;2023-05-20T08:30:04;8.98;;;4.80;;
73084;SDS011;62974;49.460;10.892;2023-05-20T08:32:33;8.55;;;4.47;;
73084;SDS011;62974;49.460;10.892;2023-05-20T08:35:02;7.57;;;4.40;;
73084;SDS011;62974;49.460;10.892;2023-05-20T08:37:30;8.07;;;4.40;;
73084;SDS011;62974;49.460;10.892;2023-05-20T08:39:58;4.97;;;3.13;;
73084;SDS011;62974;49.460;10.892;2023-05-20T08:42:25;9.85;;;4.63;;
73084;SDS011;62974;49.460;10.892;2023-05-20T08:44:53;8.00;;;4.68;;
73084;SDS011;62974;49.460;10.892;2023-05-20T08:47:22;7.32;;;3.38;;
73084;SDS011;62974;49.460;10.892;2023-05-20T08:49:50;6.22;;;4.35;;
73084;SDS011;62974;49.460;10.892;2023-05-20T08:52:20;6.32;;;3.70;;
73084;SDS011;62974;49.460;10.892;2023-05-20T08:54:48;5.95;;;4.15;;
73084;SDS011;62974;49.460;10.892;2023-05-20T08:57:16;7.53;;;4.53;;
73084;SDS011;62974;49.460;10.892;2023-05-20T08:59:45;5.20;;;3.63;;
73084;SDS011;62974;49.460;10.892;2023-05-20T09:02:13;6.65;;;4.65;;
73084;SDS011;62974;49.460;10.892;2023-05-20T09:04:41;8.38;;;4.75;;
73084;SDS011;62974;49.460;10.892;2023-05-20T09:07:09;7.47;;;4.15;;
73084;SDS011;62974;49.460;10.892;2023-05-20T09:09:38;6.05;;;3.17;;
73084;SDS011;62974;49.460;10.892;2023-05-20T09:12:06;6.15;;;3.10;;
73084;SDS011;62974;49.460;10.892;2023-05-20T09:14:34;5.18;;;3.15;;
73084;SDS011;62974;49.460;10.892;2023-05-20T09:17:01;7.85;;;4.93;;
73084;SDS011;62974;49.460;10.892;2023-05-20T09:19:30;7.50;;;5.18;;
73084;SDS011;62974;49.460;10.892;2023-05-20T09:22:00;7.88;;;4.95;;
73084;SDS011;62974;49.460;10.892;2023-05-20T09:24:30;6.90;;;4.25;;
73084;SDS011;62974;49.460;10.892;2023-05-20T09:26:59;6.93;;;3.55;;
73084;SDS011;62974;49.460;10.892;2023-05-20T09:29:26;5.95;;;3.75;;
73084;SDS011;62974;49.460;10.892;2023-05-20T09:31:54;8.23;;;4.55;;
73084;SDS011;62974;49.460;10.892;2023-05-20T09:34:22;5.78;;;3.10;;
73084;SDS011;62974;49.460;10.892;2023-05-20T09:36:49;6.47;;;4.03;;
73084;SDS011;62974;49.460;10.892;2023-05-20T09:39:19;6.47;;;4.55;;
73084;SDS011;62974;49.460;10.892;2023-05-20T09:41:52;4.22;;;2.67;;
73084;SDS011;62974;49.460;10.892;2023-05-20T09:44:23;8.10;;;4.35;;
73084;SDS011;62974;49.460;10.892;2023-05-20T09:46:54;9.73;;;4.70;;
73084;SDS011;62974;49.460;10.892;2023-05-20T09:49:24;5.47;;;4.10;;
73084;SDS011;62974;49.460;10.892;2023-05-20T09:51:52;6.90;;;4.07;;
73084;SDS011;62974;49.460;10.892;2023-05-20T09:54:22;6.97;;;4.35;;
73084;SDS011;62974;49.460;10.892;2023-05-20T09:56:50;5.68;;;3.40;;
73084;SDS011;62974;49.460;10.892;2023-05-20T09:59:20;8.38;;;4.35;;
73084;SDS011;62974;49.460;10.892;2023-05-20T10:01:49;6.80;;;4.80;;
73084;SDS011;62974;49.460;10.892;2023-05-20T10:04:17;8.02;;;4.90;;
73084;SDS011;62974;49.460;10.892;2023-05-20T10:07:08;6.25;;;3.47;;
73084;SDS011;62974;49.460;10.892;2023-05-20T10:10:08;6.15;;;4.07;;
73084;SDS011;62974;49.460;10.892;2023-05-20T10:12:48;6.20;;;3.63;;
73084;SDS011;62974;49.460;10.892;2023-05-20T10:15:23;5.35;;;3.22;;
73084;SDS011;62974;49.460;10.892;2023-05-20T10:18:01;7.28;;;4.03;;
73084;SDS011;62974;49.460;10.892;2023-05-20T10:20:45;7.30;;;5.15;;
73084;SDS011;62974;49.460;10.892;2023-05-20T10:23:20;5.47;;;4.22;;
73084;SDS011;62974;49.460;10.892;2023-05-20T10:25:51;9.13;;;4.68;;
73084;SDS011;62974;49.460;10.892;2023-05-20T10:28:29;6.30;;;4.72;;
73084;SDS011;62974;49.460;10.892;2023-05-20T10:30:58;8.70;;;4.13;;
73084;SDS011;62974;49.460;10.892;2023-05-20T10:33:28;6.95;;;4.32;;
73084;SDS011;62974;49.460;10.892;2023-05-20T10:35:57;7.32;;;4.32;;
73084;SDS011;62974;49.460;10.892;2023-05-20T10:38:25;5.07;;;3.45;;
73084;SDS011;62974;49.460;10.892;2023-05-20T10:40:53;6.93;;;4.70;;
73084;SDS011;62974;49.460;10.892;2023-05-20T10:43:24;6.57;;;4.75;;
73084;SDS011;62974;49.460;10.892;2023-05-20T10:45:54;5.68;;;3.70;;
73084;SDS011;62974;49.460;10.892;2023-05-20T10:48:23;5.97;;;4.25;;
73084;SDS011;62974;49.460;10.892;2023-05-20T10:50:54;7.90;;;4.97;;
73084;SDS011;62974;49.460;10.892;2023-05-20T10:53:23;7.00;;;4.47;;
73084;SDS011;62974;49.460;10.892;2023-05-20T10:55:59;8.52;;;5.18;;
73084;SDS011;62974;49.460;10.892;2023-05-20T10:58:34;6.13;;;4.32;;
73084;SDS011;62974;49.460;10.892;2023-05-20T11:01:03;7.75;;;3.42;;
73084;SDS011;62974;49.460;10.892;2023-05-20T11:03:31;5.72;;;4.45;;
73084;SDS011;62974;49.460;10.892;2023-05-20T11:06:02;6.28;;;4.53;;
73084;SDS011;62974;49.460;10.892;2023-05-20T11:08:37;5.45;;;2.85;;
73084;SDS011;62974;49.460;10.892;2023-05-20T11:11:05;6.93;;;4.53;;
73084;SDS011;62974;49.460;10.892;2023-05-20T11:13:33;6.63;;;3.60;;
73084;SDS011;62974;49.460;10.892;2023-05-20T11:16:01;6.72;;;3.42;;
73084;SDS011;62974;49.460;10.892;2023-05-20T11:18:29;5.25;;;3.72;;
73084;SDS011;62974;49.460;10.892;2023-05-20T11:20:57;7.63;;;4.57;;
73084;SDS011;62974;49.460;10.892;2023-05-20T11:23:27;5.35;;;4.32;;
73084;SDS011;62974;49.460;10.892;2023-05-20T11:25:55;5.55;;;3.15;;
73084;SDS011;62974;49.460;10.892;2023-05-20T11:28:23;6.70;;;4.07;;
73084;SDS011;62974;49.460;10.892;2023-05-20T11:30:52;5.82;;;3.95;;
73084;SDS011;62974;49.460;10.892;2023-05-20T11:33:19;7.10;;;4.25;;
73084;SDS011;62974;49.460;10.892;2023-05-20T11:35:49;5.85;;;4.10;;
73084;SDS011;62974;49.460;10.892;2023-05-20T11:38:18;6.22;;;4.40;;
73084;SDS011;62974;49.460;10.892;2023-05-20T11:40:50;7.32;;;4.43;;
73084;SDS011;62974;49.460;10.892;2023-05-20T11:43:19;5.78;;;3.03;;
73084;SDS011;62974;49.460;10.892;2023-05-20T11:45:51;6.57;;;4.47;;
73084;SDS011;62974;49.460;10.892;2023-05-20T11:48:20;6.15;;;4.72;;
73084;SDS011;62974;49.460;10.892;2023-05-20T11:50:49;6.47;;;4.72;;
73084;SDS011;62974;49.460;10.892;2023-05-20T11:53:21;4.20;;;2.92;;
73084;SDS011;62974;49.460;10.892;2023-05-20T11:55:54;8.85;;;5.40;;
73084;SDS011;62974;49.460;10.892;2023-05-20T11:58:23;6.28;;;3.88;;
73084;SDS011;62974;49.460;10.892;2023-05-20T12:00:51;5.50;;;3.78;;
73084;SDS011;62974;49.460;10.892;2023-05-20T12:03:34;5.90;;;3.90;;
73084;SDS011;62974;49.460;10.892;2023-05-20T12:06:02;6.60;;;4.10;;
73084;SDS011;62974;49.460;10.892;2023-05-20T12:10:59;5.18;;;3.47;;
73084;SDS011;62974;49.460;10.892;2023-05-20T12:13:27;7.63;;;4.60;;
73084;SDS011;62974;49.460;10.892;2023-05-20T12:15:54;7.70;;;4.22;;
73084;SDS011;62974;49.460;10.892;2023-05-20T12:18:22;6.53;;;5.05;;
73084;SDS011;62974;49.460;10.892;2023-05-20T12:20:50;8.35;;;4.57;;
73084;SDS011;62974;49.460;10.892;2023-05-20T12:23:17;7.43;;;4.70;;
73084;SDS011;62974;49.460;10.892;2023-05-20T12:25:46;6.05;;;3.90;;
73084;SDS011;62974;49.460;10.892;2023-05-20T12:28:17;7.53;;;5.15;;
73084;SDS011;62974;49.460;10.892;2023-05-20T12:30:45;7.63;;;4.95;;
73084;SDS011;62974;49.460;10.892;2023-05-20T12:33:13;5.40;;;3.60;;
73084;SDS011;62974;49.460;10.892;2023-05-20T12:35:41;7.75;;;5.18;;
73084;SDS011;62974;49.460;10.892;2023-05-20T12:38:09;8.88;;;5.05;;
73084;SDS011;62974;49.460;10.892;2023-05-20T12:40:37;8.95;;;4.80;;
73084;SDS011;62974;49.460;10.892;2023-05-20T12:43:04;7.05;;;5.10;;
73084;SDS011;62974;49.460;10.892;2023-05-20T12:45:33;7.55;;;4.75;;
73084;SDS011;62974;49.460;10.892;2023-05-20T12:48:01;7.43;;;5.00;;
73084;SDS011;62974;49.460;10.892;2023-05-20T12:50:29;7.35;;;4.72;;
73084;SDS011;62974;49.460;10.892;2023-05-20T12:52:56;8.95;;;5.32;;
73084;SDS011;62974;49.460;10.892;2023-05-20T12:55:24;8.25;;;4.78;;
73084;SDS011;62974;49.460;10.892;2023-05-20T12:57:54;8.13;;;4.60;;
73084;SDS011;62974;49.460;10.892;2023-05-20T13:02:50;7.60;;;4.25;;
73084;SDS011;62974;49.460;10.892;2023-05-20T13:05:20;8.05;;;5.70;;
73084;SDS011;62974;49.460;10.892;2023-05-20T13:07:48;8.50;;;5.32;;
73084;SDS011;62974;49.460;10.892;2023-05-20T13:10:15;8.32;;;5.18;;
73084;SDS011;62974;49.460;10.892;2023-05-20T13:12:43;7.65;;;4.57;;
73084;SDS011;62974;49.460;10.892;2023-05-20T13:17:39;9.43;;;5.55;;
73084;SDS011;62974;49.460;10.892;2023-05-20T13:20:12;8.05;;;5.18;;
73084;SDS011;62974;49.460;10.892;2023-05-20T13:22:40;7.28;;;5.38;;
73084;SDS011;62974;49.460;10.892;2023-05-20T13:25:07;9.05;;;5.18;;
73084;SDS011;62974;49.460;10.892;2023-05-20T13:27:35;5.80;;;4.47;;
73084;SDS011;62974;49.460;10.892;2023-05-20T13:30:03;6.90;;;4.90;;
73084;SDS011;62974;49.460;10.892;2023-05-20T13:32:32;6.82;;;4.50;;
73084;SDS011;62974;49.460;10.892;2023-05-20T13:34:59;8.18;;;5.97;;
73084;SDS011;62974;49.460;10.892;2023-05-20T13:37:28;7.00;;;4.53;;
73084;SDS011;62974;49.460;10.892;2023-05-20T13:39:56;9.68;;;4.75;;
73084;SDS011;62974;49.460;10.892;2023-05-20T13:42:23;9.05;;;4.90;;
73084;SDS011;62974;49.460;10.892;2023-05-20T13:44:51;7.47;;;4.95;;
73084;SDS011;62974;49.460;10.892;2023-05-20T13:47:18;7.22;;;4.65;;
73084;SDS011;62974;49.460;10.892;2023-05-20T13:49:46;9.20;;;6.22;;
73084;SDS011;62974;49.460;10.892;2023-05-20T13:52:16;6.78;;;5.00;;
73084;SDS011;62974;49.460;10.892;2023-05-20T13:54:45;8.75;;;5.80;;
73084;SDS011;62974;49.460;10.892;2023-05-20T13:57:13;7.15;;;4.53;;
73084;SDS011;62974;49.460;10.892;2023-05-20T13:59:41;7.68;;;5.00;;
73084;SDS011;62974;49.460;10.892;2023-05-20T14:02:09;7.38;;;5.50;;
73084;SDS011;62974;49.460;10.892;2023-05-20T14:04:37;6.43;;;4.45;;
73084;SDS011;62974;49.460;10.892;2023-05-20T14:07:05;7.57;;;4.88;;
73084;SDS011;62974;49.460;10.892;2023-05-20T14:09:35;7.25;;;4.90;;
73084;SDS011;62974;49.460;10.892;2023-05-20T14:12:06;9.32;;;5.40;;
73084;SDS011;62974;49.460;10.892;2023-05-20T14:14:34;8.38;;;4.78;;
73084;SDS011;62974;49.460;10.892;2023-05-20T14:17:02;7.60;;;4.68;;
73084;SDS011;62974;49.460;10.892;2023-05-20T14:19:30;8.55;;;4.63;;
73084;SDS011;62974;49.460;10.892;2023-05-20T14:21:58;7.90;;;4.82;;
73084;SDS011;62974;49.460;10.892;2023-05-20T14:24:27;7.55;;;4.93;;
73084;SDS011;62974;49.460;10.892;2023-05-20T14:26:55;7.70;;;4.63;;
73084;SDS011;62974;49.460;10.892;2023-05-20T14:29:24;8.50;;;5.40;;
73084;SDS011;62974;49.460;10.892;2023-05-20T14:31:51;7.38;;;4.88;;
73084;SDS011;62974;49.460;10.892;2023-05-20T14:34:19;6.53;;;5.03;;
73084;SDS011;62974;49.460;10.892;2023-05-20T14:36:47;7.80;;;4.78;;
73084;SDS011;62974;49.460;10.892;2023-05-20T14:39:15;9.10;;;4.88;;
73084;SDS011;62974;49.460;10.892;2023-05-20T14:41:42;7.07;;;4.60;;
73084;SDS011;62974;49.460;10.892;2023-05-20T14:44:10;7.50;;;4.93;;
73084;SDS011;62974;49.460;10.892;2023-05-20T14:46:39;7.50;;;5.20;;
73084;SDS011;62974;49.460;10.892;2023-05-20T14:49:07;8.05;;;4.97;;
73084;SDS011;62974;49.460;10.892;2023-05-20T14:51:34;7.50;;;4.65;;